Station History

Weather Underground - logo

Station Historical Data
Daily Summary for August 26, 2017 Units:  English    Metric   Both
« Previous Day
Next Day »
Daily Weekly Monthly Yearly Custom
  High: Low: Average:
Temperature: 102.9 °F 68.5 °F 84.9 °F
Dew Point: 68.8 °F 57.8 °F 64.1 °F
Humidity: 81 % 24 % 54 %
Wind Speed: 5.0 mph 0.0 mph 1.1 mph
Wind Gust: 5.0 mph - -
Wind:- - SSW
Pressure: 29.87 in 29.76 in -
Precipitation: 0.00 in    
Historical Graphs
 
 
Tabular Data for August 26, 2017
Time Temperature Dew Point Pressure Wind Wind Speed Wind Gust Humidity Rainfall Rate (Hourly)
00:03 76.0 °F 66.3 °F 29.77 in Calm     72 % 0.00 in
00:08 76.1 °F 66.4 °F 29.77 in Calm     72 % 0.00 in
00:18 75.7 °F 66.4 °F 29.77 in Calm     73 % 0.00 in
00:23 75.4 °F 66.1 °F 29.77 in Calm     73 % 0.00 in
00:28 75.2 °F 66.3 °F 29.78 in Calm     74 % 0.00 in
00:33 75.1 °F 65.9 °F 29.78 in Calm     73 % 0.00 in
00:38 75.0 °F 66.5 °F 29.78 in Calm     75 % 0.00 in
00:43 75.0 °F 66.1 °F 29.78 in Calm     74 % 0.00 in
00:48 74.9 °F 66.1 °F 29.78 in Calm     74 % 0.00 in
00:53 74.7 °F 65.9 °F 29.78 in Calm     74 % 0.00 in
00:58 74.8 °F 66.0 °F 29.78 in Calm     74 % 0.00 in
01:03 75.1 °F 65.9 °F 29.78 in Calm     73 % 0.00 in
01:05 75.1 °F 65.9 °F 29.78 in Calm     73 % 0.00 in
01:10 75.0 °F 65.8 °F 29.78 in Calm     73 % 0.00 in
01:15 74.7 °F 65.9 °F 29.78 in Calm     74 % 0.00 in
01:20 74.5 °F 66.1 °F 29.78 in Calm     75 % 0.00 in
01:25 74.4 °F 65.6 °F 29.78 in SE 1.0 mph 1.0 mph 74 % 0.00 in
01:30 74.2 °F 65.4 °F 29.78 in Calm     74 % 0.00 in
01:35 73.9 °F 65.5 °F 29.78 in Calm     75 % 0.00 in
01:40 73.6 °F 65.2 °F 29.78 in Calm     75 % 0.00 in
01:45 73.4 °F 65.0 °F 29.78 in Calm     75 % 0.00 in
01:50 73.2 °F 64.8 °F 29.78 in Calm     75 % 0.00 in
01:55 73.0 °F 64.6 °F 29.78 in Calm     75 % 0.00 in
02:00 72.8 °F 64.8 °F 29.78 in Calm     76 % 0.00 in
02:05 72.5 °F 64.5 °F 29.78 in Calm     76 % 0.00 in
02:10 72.3 °F 64.3 °F 29.79 in Calm     76 % 0.00 in
02:15 72.1 °F 64.5 °F 29.79 in Calm     77 % 0.00 in
02:20 72.1 °F 64.5 °F 29.79 in Calm     77 % 0.00 in
02:25 72.0 °F 64.4 °F 29.79 in Calm     77 % 0.00 in
02:30 72.0 °F 64.4 °F 29.79 in Calm     77 % 0.00 in
02:35 72.0 °F 64.4 °F 29.79 in Calm     77 % 0.00 in
02:40 71.8 °F 64.2 °F 29.79 in Calm     77 % 0.00 in
02:50 71.5 °F 64.3 °F 29.79 in Calm     78 % 0.00 in
02:55 71.4 °F 63.8 °F 29.79 in Calm     77 % 0.00 in
03:00 71.3 °F 64.1 °F 29.79 in Calm     78 % 0.00 in
03:01 71.3 °F 63.7 °F 29.79 in Calm     77 % 0.00 in
03:06 71.4 °F 63.8 °F 29.79 in Calm     77 % 0.00 in
03:11 71.4 °F 63.8 °F 29.79 in SE 1.2 mph   77 % 0.00 in
03:17 71.4 °F 63.8 °F 29.80 in Calm     77 % 0.00 in
03:22 71.3 °F 63.7 °F 29.80 in Calm     77 % 0.00 in
03:27 71.1 °F 63.9 °F 29.80 in Calm     78 % 0.00 in
03:32 71.0 °F 63.8 °F 29.80 in Calm     78 % 0.00 in
03:37 70.9 °F 63.7 °F 29.79 in Calm     78 % 0.00 in
03:42 70.8 °F 64.0 °F 29.79 in Calm     79 % 0.00 in
03:47 70.7 °F 63.9 °F 29.79 in Calm     79 % 0.00 in
03:52 70.6 °F 63.8 °F 29.80 in Calm     79 % 0.00 in
03:57 70.5 °F 63.7 °F 29.80 in Calm     79 % 0.00 in
04:02 70.4 °F 63.9 °F 29.80 in Calm     80 % 0.00 in
04:07 70.3 °F 63.8 °F 29.80 in SE 1.0 mph 1.0 mph 80 % 0.00 in
04:12 70.2 °F 63.7 °F 29.80 in Calm     80 % 0.00 in
04:17 70.1 °F 64.0 °F 29.80 in Calm     81 % 0.00 in
04:22 70.1 °F 63.6 °F 29.80 in Calm     80 % 0.00 in
04:27 70.1 °F 63.6 °F 29.80 in Calm     80 % 0.00 in
04:32 69.9 °F 63.4 °F 29.80 in Calm     80 % 0.00 in
04:37 69.8 °F 63.3 °F 29.80 in Calm     80 % 0.00 in
04:42 69.7 °F 63.3 °F 29.80 in Calm     80 % 0.00 in
04:47 69.7 °F 63.3 °F 29.80 in Calm     80 % 0.00 in
04:52 69.6 °F 63.2 °F 29.80 in Calm     80 % 0.00 in
04:57 69.4 °F 63.3 °F 29.80 in Calm     81 % 0.00 in
05:02 69.4 °F 63.3 °F 29.80 in Calm     81 % 0.00 in
05:07 69.5 °F 63.4 °F 29.81 in Calm     81 % 0.00 in
05:12 69.5 °F 63.1 °F 29.81 in SE 1.2 mph 1.2 mph 80 % 0.00 in
05:17 69.6 °F 62.8 °F 29.81 in Calm     79 % 0.00 in
05:23 69.8 °F 63.0 °F 29.81 in Calm     79 % 0.00 in
05:28 69.8 °F 62.6 °F 29.81 in Calm     78 % 0.00 in
05:33 69.6 °F 62.8 °F 29.82 in Calm     79 % 0.00 in
05:38 69.5 °F 62.3 °F 29.82 in Calm     78 % 0.00 in
05:43 69.4 °F 62.6 °F 29.82 in Calm     79 % 0.00 in
05:48 69.3 °F 62.1 °F 29.82 in Calm     78 % 0.00 in
05:53 69.2 °F 62.4 °F 29.82 in Calm     79 % 0.00 in
05:58 69.0 °F 62.2 °F 29.82 in Calm     79 % 0.00 in
06:03 68.8 °F 62.4 °F 29.82 in Calm     80 % 0.00 in
06:08 68.6 °F 62.2 °F 29.82 in Calm     80 % 0.00 in
06:13 68.5 °F 62.1 °F 29.83 in Calm     80 % 0.00 in
06:18 68.5 °F 62.1 °F 29.83 in Calm     80 % 0.00 in
06:23 68.5 °F 61.7 °F 29.83 in Calm     79 % 0.00 in
06:28 68.6 °F 61.5 °F 29.83 in Calm     78 % 0.00 in
06:33 68.6 °F 62.5 °F 29.83 in Calm     81 % 0.00 in
06:38 68.6 °F 61.8 °F 29.83 in Calm     79 % 0.00 in
06:43 68.9 °F 61.8 °F 29.83 in Calm     78 % 0.00 in
06:53 69.7 °F 61.8 °F 29.84 in Calm     76 % 0.00 in
06:58 70.1 °F 61.8 °F 29.84 in Calm     75 % 0.00 in
07:03 70.3 °F 61.6 °F 29.84 in Calm     74 % 0.00 in
07:08 70.5 °F 61.8 °F 29.84 in Calm     74 % 0.00 in
07:13 70.8 °F 62.1 °F 29.84 in SE 1.2 mph 1.2 mph 74 % 0.00 in
07:18 71.1 °F 62.4 °F 29.85 in SE 1.2 mph 1.2 mph 74 % 0.00 in
07:23 71.4 °F 62.7 °F 29.85 in SE 1.2 mph   74 % 0.00 in
07:28 71.7 °F 62.6 °F 29.85 in Calm     73 % 0.00 in
07:33 72.1 °F 63.0 °F 29.85 in Calm     73 % 0.00 in
07:38 72.6 °F 63.1 °F 29.85 in Calm     72 % 0.00 in
07:43 73.1 °F 63.1 °F 29.85 in Calm     71 % 0.00 in
07:48 74.2 °F 63.4 °F 29.86 in East 1.0 mph 1.0 mph 69 % 0.00 in
07:53 75.3 °F 63.2 °F 29.86 in SE 1.0 mph 1.0 mph 66 % 0.00 in
07:58 76.1 °F 63.0 °F 29.86 in Calm   0.2 mph 64 % 0.00 in
08:03 77.0 °F 63.9 °F 29.86 in SE 1.2 mph   64 % 0.00 in
08:08 77.6 °F 63.5 °F 29.86 in ENE 1.2 mph 1.2 mph 62 % 0.00 in
08:13 78.0 °F 63.0 °F 29.86 in ESE 1.2 mph 1.2 mph 60 % 0.00 in
08:19 78.6 °F 64.0 °F 29.86 in SE 1.2 mph   61 % 0.00 in
08:23 79.4 °F 63.8 °F 29.86 in SSE 2.3 mph 2.3 mph 59 % 0.00 in
08:28 79.8 °F 63.7 °F 29.86 in SE 2.3 mph 2.3 mph 58 % 0.00 in
08:34 80.0 °F 63.9 °F 29.86 in SE 1.2 mph 1.2 mph 58 % 0.00 in
08:39 80.4 °F 63.8 °F 29.86 in ESE 1.2 mph 1.2 mph 57 % 0.00 in
08:44 81.2 °F 64.0 °F 29.87 in SE 2.0 mph 2.0 mph 56 % 0.00 in
08:49 81.3 °F 63.6 °F 29.87 in South 1.2 mph 1.2 mph 55 % 0.00 in
08:54 81.6 °F 62.8 °F 29.87 in SSE 2.3 mph 2.3 mph 53 % 0.00 in
08:59 81.8 °F 63.5 °F 29.87 in SSE 2.3 mph 2.3 mph 54 % 0.00 in
09:04 82.2 °F 63.4 °F 29.87 in SSW 2.3 mph 2.3 mph 53 % 0.00 in
09:09 83.0 °F 64.1 °F 29.87 in SSE 2.3 mph 2.3 mph 53 % 0.00 in
09:14 83.3 °F 63.3 °F 29.87 in SW 3.5 mph 3.5 mph 51 % 0.00 in
09:19 83.7 °F 63.1 °F 29.87 in South 3.5 mph 3.5 mph 50 % 0.00 in
09:24 84.0 °F 63.4 °F 29.87 in SSW 3.5 mph 3.5 mph 50 % 0.00 in
09:29 84.3 °F 63.1 °F 29.87 in SSE 1.2 mph   49 % 0.00 in
09:34 84.4 °F 62.0 °F 29.87 in South 3.0 mph 3.0 mph 47 % 0.00 in
09:39 84.6 °F 62.1 °F 29.87 in ESE 2.3 mph 2.3 mph 47 % 0.00 in
09:44 84.9 °F 63.0 °F 29.87 in ESE 4.6 mph 4.6 mph 48 % 0.00 in
09:49 85.1 °F 62.6 °F 29.87 in Calm     47 % 0.00 in
09:54 85.5 °F 62.4 °F 29.87 in SE 3.5 mph 3.5 mph 46 % 0.00 in
09:59 86.0 °F 62.8 °F 29.87 in SE 5.0 mph 5.0 mph 46 % 0.00 in
10:05 86.1 °F 61.6 °F 29.87 in SSE 3.5 mph 3.5 mph 44 % 0.00 in
10:10 86.5 °F 63.9 °F 29.87 in SSW 2.3 mph 2.3 mph 47 % 0.00 in
10:15 86.7 °F 62.8 °F 29.87 in South 3.5 mph 3.5 mph 45 % 0.00 in
10:20 87.0 °F 63.1 °F 29.87 in SE 3.5 mph 3.5 mph 45 % 0.00 in
10:25 87.3 °F 62.7 °F 29.87 in SE 3.5 mph 3.5 mph 44 % 0.00 in
10:30 87.8 °F 62.5 °F 29.87 in East 3.5 mph 3.5 mph 43 % 0.00 in
10:35 88.0 °F 62.0 °F 29.87 in SSE 3.0 mph 3.0 mph 42 % 0.00 in
10:40 88.5 °F 63.1 °F 29.87 in SSE 1.2 mph 1.2 mph 43 % 0.00 in
10:45 88.9 °F 61.5 °F 29.87 in SSW 3.5 mph 3.5 mph 40 % 0.00 in
10:50 88.9 °F 61.5 °F 29.86 in East 2.3 mph 2.3 mph 40 % 0.00 in
10:55 88.9 °F 62.8 °F 29.86 in WSW 2.3 mph 2.3 mph 42 % 0.00 in
11:00 89.0 °F 62.9 °F 29.86 in SSE 4.6 mph 4.6 mph 42 % 0.00 in
11:05 89.5 °F 64.7 °F 29.86 in SSE 2.0 mph 2.0 mph 44 % 0.00 in
11:10 89.5 °F 62.7 °F 29.86 in ESE 2.3 mph 2.3 mph 41 % 0.00 in
11:15 89.6 °F 62.8 °F 29.86 in ESE 3.5 mph 3.5 mph 41 % 0.00 in
11:20 89.7 °F 62.2 °F 29.86 in SSE 3.5 mph 3.5 mph 40 % 0.00 in
11:25 90.3 °F 62.0 °F 29.86 in ENE 3.5 mph 3.5 mph 39 % 0.00 in
11:30 90.5 °F 63.6 °F 29.86 in ESE 3.5 mph 3.5 mph 41 % 0.00 in
11:35 90.8 °F 63.9 °F 29.86 in North 3.0 mph 3.0 mph 41 % 0.00 in
11:40 90.9 °F 63.9 °F 29.86 in ESE 2.3 mph 2.3 mph 41 % 0.00 in
11:45 91.2 °F 62.8 °F 29.86 in NW 3.5 mph 3.5 mph 39 % 0.00 in
11:50 91.8 °F 63.3 °F 29.86 in NW 3.5 mph 3.5 mph 39 % 0.00 in
11:55 92.3 °F 63.0 °F 29.86 in South 3.0 mph 3.0 mph 38 % 0.00 in
12:00 92.6 °F 64.8 °F 29.86 in SE 2.3 mph 2.3 mph 40 % 0.00 in
12:05 92.8 °F 63.5 °F 29.86 in SE 3.5 mph 3.5 mph 38 % 0.00 in
12:10 93.1 °F 63.7 °F 29.85 in WNW 2.3 mph 2.3 mph 38 % 0.00 in
12:15 93.0 °F 65.1 °F 29.85 in East 1.2 mph   40 % 0.00 in
12:20 93.1 °F 63.7 °F 29.85 in NW 1.2 mph 1.2 mph 38 % 0.00 in
12:26 93.5 °F 64.1 °F 29.85 in SE 1.2 mph 1.2 mph 38 % 0.00 in
12:31 94.2 °F 63.9 °F 29.85 in WNW 3.5 mph 3.5 mph 37 % 0.00 in
12:36 94.4 °F 64.9 °F 29.85 in East 1.2 mph 1.2 mph 38 % 0.00 in
12:41 94.3 °F 64.0 °F 29.84 in East 3.0 mph 3.0 mph 37 % 0.00 in
12:46 94.5 °F 61.8 °F 29.84 in NW 3.5 mph 3.5 mph 34 % 0.00 in
12:51 94.9 °F 64.6 °F 29.84 in SE 1.2 mph   37 % 0.00 in
12:56 94.6 °F 65.1 °F 29.84 in ENE 2.3 mph 2.3 mph 38 % 0.00 in
13:01 94.6 °F 63.5 °F 29.84 in North 2.3 mph 2.3 mph 36 % 0.00 in
13:06 94.7 °F 63.6 °F 29.84 in NNE 3.5 mph 3.5 mph 36 % 0.00 in
13:11 94.9 °F 62.1 °F 29.84 in SE 2.3 mph 2.3 mph 34 % 0.00 in
13:16 95.4 °F 63.4 °F 29.84 in SE 2.3 mph 2.3 mph 35 % 0.00 in
13:21 95.9 °F 62.2 °F 29.84 in SE 1.2 mph 1.2 mph 33 % 0.00 in
13:26 96.8 °F 63.8 °F 29.84 in South 2.3 mph 2.3 mph 34 % 0.00 in
13:31 97.1 °F 62.3 °F 29.83 in NW 1.2 mph 1.2 mph 32 % 0.00 in
13:36 96.8 °F 62.1 °F 29.83 in ESE 3.0 mph 3.0 mph 32 % 0.00 in
13:39 97.0 °F 64.0 °F 29.83 in SSE 2.3 mph 2.3 mph 34 % 0.00 in
13:44 97.5 °F 62.7 °F 29.83 in SSE 2.3 mph 2.3 mph 32 % 0.00 in
13:49 98.0 °F 61.3 °F 29.83 in WNW 2.3 mph 2.3 mph 30 % 0.00 in
13:54 98.5 °F 63.6 °F 29.82 in North 2.0 mph 2.0 mph 32 % 0.00 in
13:59 99.2 °F 64.2 °F 29.82 in North 1.2 mph 1.2 mph 32 % 0.00 in
14:04 99.1 °F 64.1 °F 29.82 in SSE 1.2 mph 1.2 mph 32 % 0.00 in
14:09 99.5 °F 64.4 °F 29.82 in NW 1.2 mph 1.2 mph 32 % 0.00 in
14:14 99.6 °F 61.7 °F 29.82 in NNW 2.3 mph 2.3 mph 29 % 0.00 in
14:19 99.4 °F 59.5 °F 29.81 in NW 3.0 mph 3.0 mph 27 % 0.00 in
14:20 99.4 °F 59.5 °F 29.81 in NW 3.5 mph 3.5 mph 27 % 0.00 in
14:25 99.2 °F 61.4 °F 29.81 in North 3.5 mph 3.5 mph 29 % 0.00 in
14:30 99.5 °F 58.5 °F 29.81 in SSE 1.2 mph 1.2 mph 26 % 0.00 in
14:35 99.7 °F 63.7 °F 29.81 in SSE 1.2 mph 1.2 mph 31 % 0.00 in
14:40 100.2 °F 59.1 °F 29.81 in NW 2.3 mph 2.3 mph 26 % 0.00 in
14:45 100.5 °F 60.4 °F 29.81 in ESE 2.3 mph 2.3 mph 27 % 0.00 in
14:50 101.3 °F 57.8 °F 29.80 in NNW 1.2 mph 1.2 mph 24 % 0.00 in
14:55 101.4 °F 59.0 °F 29.80 in ESE 1.2 mph 1.2 mph 25 % 0.00 in
15:00 101.2 °F 62.1 °F 29.80 in NNW 1.2 mph 1.2 mph 28 % 0.00 in
15:05 101.2 °F 63.1 °F 29.79 in NW 1.2 mph 1.2 mph 29 % 0.00 in
15:10 101.2 °F 62.1 °F 29.79 in SE 1.2 mph 1.2 mph 28 % 0.00 in
15:15 101.3 °F 63.2 °F 29.79 in NW 2.3 mph 2.3 mph 29 % 0.00 in
15:20 100.9 °F 63.8 °F 29.79 in East 1.2 mph 1.2 mph 30 % 0.00 in
15:25 100.9 °F 61.8 °F 29.78 in West 3.5 mph   28 % 0.00 in
15:30 100.7 °F 60.6 °F 29.78 in NW 2.3 mph 2.3 mph 27 % 0.00 in
15:35 100.9 °F 60.8 °F 29.78 in NW 2.3 mph 2.3 mph 27 % 0.00 in
15:40 100.8 °F 60.7 °F 29.78 in NW 2.3 mph 2.3 mph 27 % 0.00 in
15:45 101.0 °F 59.8 °F 29.78 in WNW 2.3 mph   26 % 0.00 in
15:50 101.6 °F 61.4 °F 29.78 in West 1.2 mph 1.2 mph 27 % 0.00 in
15:55 102.2 °F 59.7 °F 29.78 in West 1.2 mph 1.2 mph 25 % 0.00 in
16:00 102.5 °F 61.1 °F 29.77 in WSW 2.3 mph 2.3 mph 26 % 0.00 in
16:05 102.7 °F 63.3 °F 29.77 in NNW 1.2 mph 1.2 mph 28 % 0.00 in
16:10 102.9 °F 61.4 °F 29.77 in WSW 1.2 mph 1.2 mph 26 % 0.00 in
16:15 102.3 °F 60.9 °F 29.77 in NW 3.5 mph 3.5 mph 26 % 0.00 in
16:20 101.9 °F 59.5 °F 29.77 in NW 3.5 mph 3.5 mph 25 % 0.00 in
16:25 101.9 °F 58.3 °F 29.77 in NW 2.3 mph 2.3 mph 24 % 0.00 in
16:30 102.1 °F 60.7 °F 29.77 in NW 2.3 mph 2.3 mph 26 % 0.00 in
16:35 102.3 °F 60.9 °F 29.77 in NW 1.2 mph 1.2 mph 26 % 0.00 in
16:40 102.5 °F 60.0 °F 29.77 in WNW 1.2 mph 1.2 mph 25 % 0.00 in
16:45 102.6 °F 58.9 °F 29.77 in West 2.3 mph 2.3 mph 24 % 0.00 in
16:50 102.9 °F 61.4 °F 29.77 in WNW 1.2 mph 1.2 mph 26 % 0.00 in
16:55 102.8 °F 60.2 °F 29.76 in NW 2.3 mph 2.3 mph 25 % 0.00 in
17:00 102.9 °F 61.4 °F 29.76 in WNW 1.2 mph 1.2 mph 26 % 0.00 in
17:05 102.9 °F 62.5 °F 29.76 in WNW 2.3 mph 2.3 mph 27 % 0.00 in
17:10 102.5 °F 62.1 °F 29.76 in NW 3.5 mph 3.5 mph 27 % 0.00 in
17:15 102.7 °F 60.1 °F 29.76 in West 1.0 mph   25 % 0.00 in
17:16 102.7 °F 60.1 °F 29.76 in West 1.2 mph 1.2 mph 25 % 0.00 in
17:21 102.7 °F 61.2 °F 29.76 in WNW 2.3 mph 2.3 mph 26 % 0.00 in
17:26 102.7 °F 61.2 °F 29.76 in NNW 2.3 mph 2.3 mph 26 % 0.00 in
17:31 102.5 °F 62.1 °F 29.76 in WNW 3.5 mph 3.5 mph 27 % 0.00 in
17:36 102.5 °F 62.1 °F 29.76 in NW 2.3 mph 2.3 mph 27 % 0.00 in
17:41 102.4 °F 63.1 °F 29.76 in WNW 3.5 mph 3.5 mph 28 % 0.00 in
17:46 102.2 °F 65.8 °F 29.76 in NW 3.0 mph 3.0 mph 31 % 0.00 in
17:51 101.9 °F 65.6 °F 29.76 in NW 2.3 mph 2.3 mph 31 % 0.00 in
17:56 101.6 °F 65.3 °F 29.76 in NW 3.5 mph 3.5 mph 31 % 0.00 in
18:01 100.9 °F 64.7 °F 29.76 in NW 3.5 mph 3.5 mph 31 % 0.00 in
18:06 100.5 °F 65.3 °F 29.76 in WNW 2.3 mph 2.3 mph 32 % 0.00 in
18:11 100.2 °F 65.0 °F 29.76 in WNW 3.5 mph 3.5 mph 32 % 0.00 in
18:16 99.8 °F 65.6 °F 29.76 in NW 1.2 mph 1.2 mph 33 % 0.00 in
18:21 99.7 °F 65.5 °F 29.76 in WNW 1.2 mph 1.2 mph 33 % 0.00 in
18:26 99.1 °F 65.8 °F 29.76 in NW 1.2 mph 1.2 mph 34 % 0.00 in
18:31 98.4 °F 65.2 °F 29.76 in WNW 2.3 mph 2.3 mph 34 % 0.00 in
18:33 98.2 °F 65.0 °F 29.76 in WNW 1.2 mph 1.2 mph 34 % 0.00 in
18:38 97.6 °F 64.5 °F 29.76 in WNW 1.2 mph 1.2 mph 34 % 0.00 in
18:43 97.1 °F 64.9 °F 29.76 in WNW 1.2 mph 1.2 mph 35 % 0.00 in
18:48 96.6 °F 65.3 °F 29.76 in Calm     36 % 0.00 in
18:53 96.1 °F 65.6 °F 29.76 in Calm     37 % 0.00 in
18:58 95.6 °F 65.2 °F 29.76 in Calm     37 % 0.00 in
19:03 95.0 °F 65.4 °F 29.76 in WNW 1.2 mph   38 % 0.00 in
19:08 94.4 °F 64.9 °F 29.76 in Calm   0.2 mph 38 % 0.00 in
19:13 94.1 °F 64.6 °F 29.76 in Calm     38 % 0.00 in
19:18 93.8 °F 65.1 °F 29.76 in Calm     39 % 0.00 in
19:23 93.3 °F 65.4 °F 29.76 in Calm     40 % 0.00 in
19:28 92.7 °F 66.9 °F 29.76 in Calm     43 % 0.00 in
19:33 91.5 °F 67.2 °F 29.77 in Calm     45 % 0.00 in
19:38 90.6 °F 67.0 °F 29.76 in Calm     46 % 0.00 in
19:43 89.9 °F 66.3 °F 29.76 in Calm     46 % 0.00 in
19:48 89.3 °F 66.4 °F 29.77 in Calm     47 % 0.00 in
19:53 89.1 °F 66.2 °F 29.77 in Calm     47 % 0.00 in
19:59 88.9 °F 65.4 °F 29.77 in Calm     46 % 0.00 in
20:04 88.6 °F 66.4 °F 29.77 in Calm     48 % 0.00 in
20:09 88.1 °F 67.7 °F 29.78 in Calm     51 % 0.00 in
20:14 87.8 °F 68.5 °F 29.78 in Calm     53 % 0.00 in
20:19 87.3 °F 68.6 °F 29.78 in Calm     54 % 0.00 in
20:24 86.7 °F 68.6 °F 29.78 in Calm     55 % 0.00 in
20:29 86.1 °F 68.0 °F 29.78 in Calm     55 % 0.00 in
20:34 85.7 °F 68.7 °F 29.79 in Calm     57 % 0.00 in
20:39 85.0 °F 67.5 °F 29.79 in Calm     56 % 0.00 in
20:44 84.4 °F 68.0 °F 29.80 in Calm     58 % 0.00 in
20:49 83.8 °F 67.9 °F 29.80 in SSW 1.2 mph 1.2 mph 59 % 0.00 in
20:54 83.2 °F 67.4 °F 29.80 in Calm     59 % 0.00 in
20:59 83.1 °F 67.3 °F 29.80 in Calm     59 % 0.00 in
21:04 83.1 °F 67.3 °F 29.81 in Calm     59 % 0.00 in
21:09 83.1 °F 67.3 °F 29.81 in Calm     59 % 0.00 in
21:14 83.1 °F 67.8 °F 29.81 in Calm     60 % 0.00 in
21:19 82.5 °F 67.2 °F 29.81 in ESE 1.2 mph 1.2 mph 60 % 0.00 in
21:24 81.9 °F 67.6 °F 29.82 in ESE 1.2 mph   62 % 0.00 in
21:29 81.4 °F 67.6 °F 29.82 in Calm   0.1 mph 63 % 0.00 in
21:34 81.2 °F 67.9 °F 29.82 in SE 1.2 mph   64 % 0.00 in
21:39 81.0 °F 68.1 °F 29.83 in SE 1.2 mph   65 % 0.00 in
21:44 80.6 °F 67.7 °F 29.83 in SE 1.0 mph 1.0 mph 65 % 0.00 in
21:50 80.4 °F 68.0 °F 29.83 in Calm   0.2 mph 66 % 0.00 in
22:00 80.4 °F 68.4 °F 29.83 in Calm     67 % 0.00 in
22:01 80.4 °F 68.4 °F 29.83 in Calm     67 % 0.00 in
22:06 80.3 °F 68.3 °F 29.83 in Calm     67 % 0.00 in
22:11 80.3 °F 68.8 °F 29.83 in SE 1.2 mph 1.2 mph 68 % 0.00 in
22:12 80.3 °F 68.8 °F 29.83 in SE 1.2 mph 1.2 mph 68 % 0.00 in
22:17 80.6 °F 68.6 °F 29.84 in ESE 1.2 mph   67 % 0.00 in
22:22 80.8 °F 68.8 °F 29.84 in Calm     67 % 0.00 in
22:27 80.9 °F 68.5 °F 29.84 in SE 1.2 mph 1.2 mph 66 % 0.00 in
22:32 81.0 °F 68.6 °F 29.84 in Calm     66 % 0.00 in
22:37 80.9 °F 68.5 °F 29.84 in Calm     66 % 0.00 in
22:42 80.8 °F 67.9 °F 29.84 in Calm     65 % 0.00 in
22:47 80.9 °F 68.0 °F 29.84 in Calm     65 % 0.00 in
22:52 81.0 °F 67.7 °F 29.84 in Calm     64 % 0.00 in
22:57 81.3 °F 67.5 °F 29.85 in Calm     63 % 0.00 in
23:02 81.5 °F 67.7 °F 29.85 in Calm     63 % 0.00 in
23:07 81.4 °F 67.1 °F 29.84 in SE 1.2 mph   62 % 0.00 in
23:12 81.7 °F 66.9 °F 29.85 in Calm     61 % 0.00 in
23:14 81.9 °F 67.1 °F 29.84 in ESE 1.2 mph   61 % 0.00 in
23:19 82.1 °F 66.8 °F 29.84 in Calm     60 % 0.00 in
23:24 82.0 °F 66.7 °F 29.85 in Calm     60 % 0.00 in
23:29 82.0 °F 66.7 °F 29.84 in Calm     60 % 0.00 in
23:34 81.8 °F 67.0 °F 29.85 in Calm     61 % 0.00 in
23:39 81.6 °F 66.8 °F 29.84 in Calm     61 % 0.00 in
23:44 81.5 °F 66.8 °F 29.85 in Calm     61 % 0.00 in
23:49 81.2 °F 67.4 °F 29.85 in Calm     63 % 0.00 in
23:54 80.9 °F 67.6 °F 29.85 in Calm     64 % 0.00 in
23:59 80.6 °F 68.2 °F 29.85 in Calm     66 % 0.00 in
Park Place, Exeter, Tulare County, California, USA
Compliments of Weather Underground - 2.75 mb